Time;durP1;ratioP1;P1;durP2;ratioP2;P2;SDS_P1;SDS_P2;PMS_P1;PMS_P2;Temp;Humidity;BMP_temperature;BMP_pressure;BME280_temperature;BME280_humidity;BME280_pressure;Samples;Min_cycle;Max_cycle;Signal;HPM_P1;HPM_P2
2022/01/27 03:03:01;;;;;;;46.23;19.13;;;;;;;-145.18;100.00;46820.56;5112731;23;20294;-72
2022/01/27 03:05:26;;;;;;;35.77;15.37;;;;;;;-145.18;100.00;46818.63;4949127;29;20296;-71
2022/01/27 03:07:52;;;;;;;36.60;14.57;;;;;;;-145.18;100.00;46812.75;4949753;29;20039;-72
2022/01/27 03:10:19;;;;;;;34.97;17.20;;;;;;;-145.18;100.00;46820.56;4949050;29;20098;-72
2022/01/27 03:12:46;;;;;;;33.83;16.10;;;;;;;-145.18;100.00;46812.75;4948896;29;20507;-72
2022/01/27 03:15:11;;;;;;;36.57;15.60;;;;;;;-145.18;100.00;46789.31;4949541;29;20290;-72
2022/01/27 03:17:40;;;;;;;43.30;19.23;;;;;;;-145.18;100.00;46816.66;4949173;29;20313;-72
2022/01/27 03:20:08;;;;;;;35.73;16.37;;;;;;;-145.18;100.00;46801.03;4949161;29;20126;-72
2022/01/27 03:22:34;;;;;;;40.63;15.93;;;;;;;-145.18;100.00;46799.09;4948873;29;20615;-72
2022/01/27 03:24:59;;;;;;;36.73;15.40;;;;;;;-145.18;100.00;46808.84;4949841;29;20277;-72
2022/01/27 03:27:27;;;;;;;38.23;18.17;;;;;;;-145.18;100.00;46804.94;4949462;29;20077;-72
2022/01/27 03:29:52;;;;;;;39.57;18.27;;;;;;;-145.18;100.00;46801.03;4949311;29;20043;-72
2022/01/27 03:32:18;;;;;;;38.40;18.90;;;;;;;-145.18;100.00;46785.41;4949040;29;20292;-72
2022/01/27 03:34:44;;;;;;;38.20;17.10;;;;;;;-145.18;100.00;46793.22;4949211;29;20051;-72
2022/01/27 03:37:10;;;;;;;36.30;16.50;;;;;;;-145.18;100.00;46804.94;4948823;29;20348;-72
2022/01/27 03:39:37;;;;;;;31.23;13.70;;;;;;;-145.18;100.00;46783.47;4949421;29;20043;-72
2022/01/27 03:42:07;;;;;;;37.03;17.03;;;;;;;-145.18;100.00;46769.78;4949477;29;20039;-72
2022/01/27 03:44:33;;;;;;;39.17;16.33;;;;;;;-145.18;100.00;46767.84;4951849;28;20633;-72
2022/01/27 03:46:59;;;;;;;37.13;17.33;;;;;;;-145.18;100.00;46783.47;4952249;29;20310;-72
2022/01/27 03:49:25;;;;;;;46.83;17.90;;;;;;;-145.18;100.00;46765.88;4953052;29;20265;-72
2022/01/27 03:51:51;;;;;;;42.27;18.03;;;;;;;-145.18;100.00;46756.09;4952577;29;20658;-72
2022/01/27 03:54:17;;;;;;;37.27;16.73;;;;;;;-145.18;100.00;46765.88;4952756;29;20094;-72
2022/01/27 03:56:42;;;;;;;44.83;17.60;;;;;;;-145.18;100.00;46763.91;4952630;29;20281;-72
2022/01/27 03:59:08;;;;;;;41.47;17.40;;;;;;;-145.18;100.00;46742.44;4953268;29;20412;-72
2022/01/27 04:01:35;;;;;;;35.63;16.43;;;;;;;-145.18;100.00;46746.34;4952831;29;20035;-72
2022/01/27 04:04:01;;;;;;;30.57;15.00;;;;;;;-145.18;100.00;46754.16;4952001;29;20282;-72
2022/01/27 04:06:36;;;;;;;40.70;16.70;;;;;;;-145.18;100.00;46734.63;4953046;29;20372;-72
2022/01/27 04:09:07;;;;;;;36.90;15.60;;;;;;;-145.18;100.00;46720.94;4951837;29;20286;-72
2022/01/27 04:11:33;;;;;;;32.77;14.80;;;;;;;-145.18;100.00;46734.63;4952779;29;20364;-72
2022/01/27 04:13:59;;;;;;;36.47;15.27;;;;;;;-145.18;100.00;46732.66;4952232;29;20285;-72
2022/01/27 04:16:24;;;;;;;41.83;16.80;;;;;;;-145.18;100.00;46701.41;4952571;29;20811;-72
2022/01/27 04:18:50;;;;;;;43.90;18.00;;;;;;;-145.18;100.00;46709.22;4952037;29;20284;-72
2022/01/27 04:21:16;;;;;;;38.90;15.70;;;;;;;-145.18;100.00;46720.94;4953327;29;20058;-72
2022/01/27 04:23:42;;;;;;;36.13;14.73;;;;;;;-145.18;100.00;46713.13;4951892;29;20082;-72
2022/01/27 04:26:08;;;;;;;33.83;14.87;;;;;;;-145.18;100.00;46703.38;4952294;29;20301;-72
2022/01/27 04:28:36;;;;;;;37.73;16.03;;;;;;;-145.18;100.00;46703.38;4952406;29;20282;-72
2022/01/27 04:31:05;;;;;;;36.40;15.97;;;;;;;-145.18;100.00;46703.38;4951681;29;20289;-72
2022/01/27 04:33:32;;;;;;;35.17;15.93;;;;;;;-145.18;100.00;46701.41;4951844;29;20626;-72
2022/01/27 04:36:01;;;;;;;33.17;12.80;;;;;;;-145.18;100.00;46699.47;4951832;29;20289;-72
2022/01/27 04:38:34;;;;;;;33.97;12.77;;;;;;;-145.18;100.00;46689.69;4951591;29;20809;-72
2022/01/27 04:41:13;;;;;;;37.03;17.23;;;;;;;-145.18;100.00;46689.69;4934666;29;20678;-72
2022/01/27 04:43:59;;;;;;;34.87;14.20;;;;;;;-145.18;100.00;46668.22;4951883;29;20285;-72
2022/01/27 04:46:33;;;;;;;37.95;15.25;;;;;;;-145.18;100.00;46683.84;4952145;29;20285;-72
2022/01/27 04:49:02;;;;;;;31.07;13.83;;;;;;;-145.18;100.00;46666.25;4951285;29;20039;-72
2022/01/27 04:51:28;;;;;;;37.00;15.63;;;;;;;-145.18;100.00;46676.03;4951989;29;20296;-72
2022/01/27 04:56:59;;;;;;;34.23;14.67;;;;;;;-145.18;100.00;46676.03;4911013;29;20778;-72
2022/01/27 04:59:28;;;;;;;34.83;13.80;;;;;;;-145.18;100.00;46689.69;4944082;29;20796;-72
2022/01/27 05:02:02;;;;;;;26.67;10.73;;;;;;;-145.18;100.00;46677.97;4951550;29;20372;-72
2022/01/27 05:04:33;;;;;;;30.90;12.47;;;;;;;-145.18;100.00;46697.50;4951602;29;20288;-72
2022/01/27 05:06:58;;;;;;;36.77;14.70;;;;;;;-145.18;100.00;46687.75;4951302;29;20285;-72
2022/01/27 05:09:24;;;;;;;35.33;14.80;;;;;;;-145.18;100.00;46685.78;4951125;29;20285;-72
2022/01/27 05:11:55;;;;;;;31.13;13.97;;;;;;;-145.18;100.00;46693.59;4951494;29;20046;-72
2022/01/27 05:14:25;;;;;;;30.83;12.93;;;;;;;-145.18;100.00;46701.41;4950989;29;20410;-72
2022/01/27 05:16:51;;;;;;;32.57;13.27;;;;;;;-145.18;100.00;46679.94;4951428;29;20277;-72
2022/01/27 05:19:17;;;;;;;37.43;13.30;;;;;;;-145.18;100.00;46685.78;4949725;29;20289;-72
2022/01/27 05:21:42;;;;;;;33.30;12.57;;;;;;;-145.18;100.00;46693.59;4951115;29;20762;-72
2022/01/27 05:24:09;;;;;;;23.47;11.37;;;;;;;-145.18;100.00;46699.47;4951566;29;20071;-72
2022/01/27 05:26:36;;;;;;;35.33;14.57;;;;;;;-145.18;100.00;46691.66;4951650;29;20047;-72
2022/01/27 05:29:03;;;;;;;33.20;14.40;;;;;;;-145.18;100.00;46701.41;4950716;29;20276;-72
2022/01/27 05:31:28;;;;;;;28.57;12.60;;;;;;;-145.18;100.00;46697.50;4951132;29;20284;-72
2022/01/27 05:33:54;;;;;;;36.93;13.13;;;;;;;-145.18;100.00;46693.59;4950742;29;20274;-72
2022/01/27 05:36:20;;;;;;;29.50;13.73;;;;;;;-145.18;100.00;46705.31;4950963;29;20126;-72
2022/01/27 05:38:45;;;;;;;28.87;12.50;;;;;;;-145.18;100.00;46689.69;4950880;29;20071;-73
2022/01/27 05:41:13;;;;;;;30.80;14.73;;;;;;;-145.18;100.00;46697.50;4951710;29;20043;-72
2022/01/27 05:43:39;;;;;;;31.27;13.87;;;;;;;-145.18;100.00;46672.13;4933537;29;20408;-72
2022/01/27 05:46:04;;;;;;;25.97;10.87;;;;;;;-145.18;100.00;46677.97;4933445;29;20294;-72
2022/01/27 05:48:29;;;;;;;32.47;14.07;;;;;;;-145.18;100.00;46683.84;4950486;29;20046;-72
2022/01/27 05:50:56;;;;;;;34.77;15.60;;;;;;;-145.18;100.00;46679.94;4950803;29;20158;-72
2022/01/27 05:53:22;;;;;;;28.57;10.37;;;;;;;-145.18;100.00;46687.75;4950404;29;20151;-72
2022/01/27 05:55:47;;;;;;;36.83;15.43;;;;;;;-145.18;100.00;46689.69;4950570;29;20972;-72
2022/01/27 05:58:13;;;;;;;27.33;11.80;;;;;;;-145.18;100.00;46677.97;4950094;29;20050;-72
2022/01/27 06:00:38;;;;;;;32.27;15.60;;;;;;;-145.18;100.00;46668.22;4950191;29;20074;-72
2022/01/27 06:03:04;;;;;;;38.13;14.83;;;;;;;-145.18;100.00;46662.34;4949114;29;20059;-72
2022/01/27 06:05:29;;;;;;;35.27;14.57;;;;;;;-145.18;100.00;46672.13;4950613;28;20118;-72
2022/01/27 06:07:54;;;;;;;37.17;13.93;;;;;;;-145.18;100.00;46674.06;4932006;29;20059;-72
2022/01/27 06:10:20;;;;;;;34.30;15.17;;;;;;;-145.18;100.00;46679.94;4933958;29;20051;-72
2022/01/27 06:12:47;;;;;;;37.03;13.90;;;;;;;-145.18;100.00;46664.31;4950130;29;20055;-72
2022/01/27 06:15:12;;;;;;;34.87;13.90;;;;;;;-145.18;100.00;46660.41;4950183;29;20073;-72
2022/01/27 06:17:37;;;;;;;36.97;13.10;;;;;;;-145.18;100.00;46668.22;4949903;29;20343;-72
2022/01/27 06:20:03;;;;;;;30.43;13.17;;;;;;;-145.18;100.00;46668.22;4935760;29;20071;-72
2022/01/27 06:22:29;;;;;;;37.37;16.83;;;;;;;-145.18;100.00;46674.06;4930165;29;20425;-72
2022/01/27 06:24:54;;;;;;;37.57;16.87;;;;;;;-145.18;100.00;46668.22;4930626;29;20055;-71
2022/01/27 06:27:20;;;;;;;39.30;16.17;;;;;;;-145.18;100.00;46664.31;4930740;29;20035;-73
2022/01/27 06:29:45;;;;;;;35.47;14.73;;;;;;;-145.18;100.00;46668.22;4930772;29;20126;-72
2022/01/27 06:32:11;;;;;;;33.40;14.87;;;;;;;-145.18;100.00;46662.34;4930450;29;20504;-72
2022/01/27 06:34:37;;;;;;;29.67;14.13;;;;;;;-145.18;100.00;46656.50;4913948;29;20111;-72
2022/01/27 06:37:02;;;;;;;41.13;16.63;;;;;;;-145.18;100.00;46658.44;4930486;29;20624;-72
2022/01/27 06:39:27;;;;;;;34.53;16.10;;;;;;;-145.18;100.00;46652.59;4930823;29;20453;-72
2022/01/27 06:41:53;;;;;;;33.53;15.50;;;;;;;-145.18;100.00;46652.59;4930821;29;20122;-72
2022/01/27 06:44:18;;;;;;;40.93;16.17;;;;;;;-145.18;100.00;46648.69;4930298;29;20489;-72
2022/01/27 06:46:43;;;;;;;37.30;14.73;;;;;;;-145.18;100.00;46652.59;4930744;29;20364;-72
2022/01/27 06:49:14;;;;;;;35.17;15.70;;;;;;;-145.18;100.00;46652.59;4912945;29;20555;-72
2022/01/27 06:51:39;;;;;;;31.67;15.30;;;;;;;-145.18;100.00;46652.59;4914354;29;20051;-72
2022/01/27 06:54:05;;;;;;;40.30;15.33;;;;;;;-145.18;100.00;46654.53;4929850;29;20282;-72
2022/01/27 06:56:30;;;;;;;31.93;14.27;;;;;;;-145.18;100.00;46660.41;4931336;29;20044;-72
2022/01/27 06:58:55;;;;;;;38.13;16.57;;;;;;;-145.18;100.00;46648.69;4929759;29;20047;-72
2022/01/27 07:01:21;;;;;;;42.07;14.30;;;;;;;-145.18;100.00;46650.63;4930547;29;20059;-72
2022/01/27 07:03:46;;;;;;;35.43;15.23;;;;;;;-145.18;100.00;46646.72;4929454;29;20052;-71
2022/01/27 07:06:12;;;;;;;35.43;13.53;;;;;;;-145.18;100.00;46644.78;4930152;29;20062;-72
2022/01/27 07:08:38;;;;;;;31.87;12.73;;;;;;;-145.18;100.00;46642.81;4929695;29;20064;-72
2022/01/27 07:11:04;;;;;;;34.17;13.83;;;;;;;-145.18;100.00;46636.94;4930635;29;20111;-72
2022/01/27 07:13:30;;;;;;;39.27;15.50;;;;;;;-145.18;100.00;46636.94;4929964;29;20286;-72
2022/01/27 07:15:57;;;;;;;30.23;12.60;;;;;;;-145.18;100.00;46629.13;4930030;29;20791;-72
2022/01/27 07:18:23;;;;;;;39.17;14.67;;;;;;;-145.18;100.00;46631.09;4929155;29;20039;-73
2022/01/27 07:20:48;;;;;;;30.17;14.90;;;;;;;-145.18;100.00;46631.09;4930422;29;20282;-72
2022/01/27 07:23:14;;;;;;;36.27;16.30;;;;;;;-145.18;100.00;46631.09;4929698;29;20130;-71
2022/01/27 07:25:39;;;;;;;39.23;15.47;;;;;;;-145.18;100.00;46660.41;4930248;29;20071;-72
2022/01/27 07:28:05;;;;;;;38.80;17.03;;;;;;;-145.18;100.00;46660.41;4929127;29;20067;-72
2022/01/27 07:30:30;;;;;;;43.30;16.60;;;;;;;-145.18;100.00;46654.53;4938987;29;20381;-72
2022/01/27 07:32:56;;;;;;;44.87;17.30;;;;;;;-145.18;100.00;46660.41;4929601;29;20541;-72
2022/01/27 07:35:21;;;;;;;41.20;15.53;;;;;;;-145.18;100.00;46656.50;4927294;29;20152;-72
2022/01/27 07:37:47;;;;;;;38.43;13.97;;;;;;;-145.18;100.00;46640.88;4928963;29;20059;-72
2022/01/27 07:40:13;;;;;;;50.53;17.93;;;;;;;-145.18;100.00;46652.59;4930006;29;20411;-73
2022/01/27 07:42:38;;;;;;;46.67;18.63;;;;;;;-145.18;100.00;46650.63;4929742;29;20044;-72
2022/01/27 07:45:05;;;;;;;51.00;18.70;;;;;;;-145.18;100.00;46652.59;4929600;29;20285;-73
2022/01/27 07:47:30;;;;;;;49.93;16.60;;;;;;;-145.18;100.00;46652.59;4929261;29;20087;-72
2022/01/27 07:49:55;;;;;;;44.37;17.37;;;;;;;-145.18;100.00;46654.53;4929599;29;20334;-72
2022/01/27 07:52:21;;;;;;;37.30;15.90;;;;;;;-145.18;100.00;46660.41;4929633;29;20546;-72
2022/01/27 07:54:47;;;;;;;42.20;15.80;;;;;;;-145.18;100.00;46660.41;4928518;29;20040;-72
2022/01/27 07:57:12;;;;;;;43.93;17.63;;;;;;;-145.18;100.00;46681.88;4928221;29;20040;-72
2022/01/27 07:59:38;;;;;;;44.20;18.10;;;;;;;-145.18;100.00;46644.78;4929236;29;20040;-72
2022/01/27 08:02:04;;;;;;;46.77;16.50;;;;;;;-145.18;100.00;46654.53;4928274;29;20060;-71
2022/01/27 08:04:30;;;;;;;39.20;15.30;;;;;;;-145.18;100.00;46674.06;4928971;29;20282;-71
2022/01/27 08:06:56;;;;;;;40.67;14.83;;;;;;;-145.18;100.00;46679.94;4929116;29;20488;-71
2022/01/27 08:09:22;;;;;;;43.03;13.80;;;;;;;-145.18;100.00;46695.56;4928941;29;20047;-72
2022/01/27 08:11:47;;;;;;;35.57;14.97;;;;;;;-145.18;100.00;46697.50;4930317;29;20271;-71
2022/01/27 08:14:13;;;;;;;42.27;13.13;;;;;;;-145.18;100.00;46703.38;4912080;29;20055;-72
2022/01/27 08:16:38;;;;;;;50.37;15.00;;;;;;;-145.18;100.00;46709.22;4911420;29;20138;-72
2022/01/27 08:19:03;;;;;;;37.00;12.50;;;;;;;-145.18;100.00;46719.00;4928709;29;20050;-72
2022/01/27 08:21:29;;;;;;;37.87;14.07;;;;;;;-145.18;100.00;46722.91;4929638;29;20059;-71
2022/01/27 08:23:56;;;;;;;29.43;11.67;;;;;;;-145.18;100.00;46726.81;4929530;29;20052;-73
2022/01/27 08:26:37;;;;;;;38.53;12.60;;;;;;;-145.18;100.00;46720.94;4929516;29;20393;-72
2022/01/27 08:29:13;;;;;;;41.13;13.93;;;;;;;-145.18;100.00;46720.94;4929242;29;20264;-72
2022/01/27 08:34:35;;;;;;;31.90;11.20;;;;;;;-145.18;100.00;46732.66;4932490;29;20267;-72
2022/01/27 08:37:09;;;;;;;33.10;12.80;;;;;;;-145.18;100.00;46726.81;4932248;29;20306;-72
2022/01/27 08:39:35;;;;;;;32.37;12.27;;;;;;;-145.18;100.00;46726.81;4932339;29;20313;-72
2022/01/27 08:42:01;;;;;;;36.97;13.53;;;;;;;-145.18;100.00;46728.75;4932405;29;20298;-72
2022/01/27 08:44:26;;;;;;;39.10;12.80;;;;;;;-145.18;100.00;46726.81;4915188;29;20518;-72
2022/01/27 08:46:52;;;;;;;42.97;13.90;;;;;;;-145.18;100.00;46728.75;4932362;29;20048;-71
2022/01/27 08:49:20;;;;;;;40.47;13.73;;;;;;;-145.18;100.00;46724.84;4932235;29;20047;-72
2022/01/27 08:51:46;;;;;;;37.67;13.47;;;;;;;-145.18;100.00;46734.63;4932457;29;20500;-72
2022/01/27 08:54:11;;;;;;;31.37;12.07;;;;;;;-145.18;100.00;46734.63;4932605;29;20262;-72
2022/01/27 08:56:37;;;;;;;36.20;12.80;;;;;;;-145.18;100.00;46732.66;4930902;29;20044;-72
2022/01/27 08:59:03;;;;;;;29.70;11.70;;;;;;;-145.18;100.00;46728.75;4931706;29;20044;-72
2022/01/27 09:01:28;;;;;;;25.40;9.50;;;;;;;-145.18;100.00;46728.75;4932390;29;20035;-71
2022/01/27 09:03:54;;;;;;;33.30;11.20;;;;;;;-145.18;100.00;46730.72;4931625;29;20039;-71
2022/01/27 09:06:20;;;;;;;22.47;8.67;;;;;;;-145.18;100.00;46728.75;4932382;29;20039;-72
2022/01/27 09:08:46;;;;;;;37.00;11.23;;;;;;;-145.18;100.00;46726.81;4932810;29;20042;-72
2022/01/27 09:11:12;;;;;;;35.53;11.97;;;;;;;-145.18;100.00;46728.75;4914967;29;20040;-72
2022/01/27 09:13:38;;;;;;;32.07;11.40;;;;;;;-145.18;100.00;46726.81;4932241;29;20270;-71
2022/01/27 09:16:07;;;;;;;28.17;10.70;;;;;;;-145.18;100.00;46728.75;4931960;29;20042;-72
2022/01/27 09:18:33;;;;;;;26.73;10.47;;;;;;;-145.18;100.00;46724.84;4930881;29;20035;-71
2022/01/27 09:21:02;;;;;;;32.40;10.47;;;;;;;-145.18;100.00;46728.75;4931919;29;20298;-72
2022/01/27 09:23:27;;;;;;;32.67;11.20;;;;;;;-145.18;100.00;46726.81;4932072;29;20040;-71
2022/01/27 09:25:56;;;;;;;33.53;9.50;;;;;;;-145.18;100.00;46724.84;4931600;29;20377;-71
2022/01/27 09:28:22;;;;;;;24.13;8.50;;;;;;;-145.18;100.00;46724.84;4931720;29;20078;-71
2022/01/27 09:30:47;;;;;;;24.63;8.20;;;;;;;-145.18;100.00;46722.91;4932297;29;20314;-71
2022/01/27 09:33:13;;;;;;;21.37;8.00;;;;;;;-145.18;100.00;46722.91;4931696;29;20082;-71
2022/01/27 09:35:40;;;;;;;23.40;8.70;;;;;;;-145.18;100.00;46724.84;4931889;29;20036;-71
2022/01/27 09:38:06;;;;;;;32.20;10.30;;;;;;;-145.18;100.00;46719.00;4914167;29;20436;-72
2022/01/27 09:40:34;;;;;;;23.10;7.47;;;;;;;-145.18;100.00;46726.81;4931709;29;20282;-71
2022/01/27 09:43:00;;;;;;;29.10;10.90;;;;;;;-145.18;100.00;46719.00;4930702;29;20039;-71
2022/01/27 09:45:27;;;;;;;19.70;9.00;;;;;;;-145.18;100.00;46719.00;4915021;29;20270;-71
2022/01/27 09:47:55;;;;;;;28.20;10.57;;;;;;;-145.18;100.00;46720.94;4931425;29;20361;-72
2022/01/27 09:50:47;;;;;;;24.63;9.43;;;;;;;-145.18;100.00;46720.94;4931529;29;20277;-71
2022/01/27 09:53:13;;;;;;;23.10;8.47;;;;;;;-145.18;100.00;46720.94;4930937;29;20634;-71
2022/01/27 09:55:39;;;;;;;27.37;10.13;;;;;;;-145.18;100.00;46719.00;4931825;29;20286;-71
2022/01/27 09:58:06;;;;;;;23.10;8.90;;;;;;;-145.18;100.00;46715.09;4930354;29;20643;-72
2022/01/27 10:00:32;;;;;;;24.67;9.50;;;;;;;-145.18;100.00;46722.91;4931574;29;20064;-71
2022/01/27 10:03:06;;;;;;;24.43;9.90;;;;;;;-145.18;100.00;46722.91;4930682;29;20310;-70
2022/01/27 10:05:32;;;;;;;22.27;9.03;;;;;;;-145.18;100.00;46719.00;4931408;29;20050;-71
2022/01/27 10:08:04;;;;;;;20.57;8.37;;;;;;;-145.18;100.00;46722.91;4930780;29;20306;-71
2022/01/27 10:10:35;;;;;;;29.73;12.90;;;;;;;-145.18;100.00;46722.91;4930227;29;20279;-71
2022/01/27 10:13:02;;;;;;;24.13;10.40;;;;;;;-145.18;100.00;46717.03;4930466;29;20278;-71
2022/01/27 10:15:28;;;;;;;31.10;11.43;;;;;;;-145.18;100.00;46719.00;4931039;29;20289;-70
2022/01/27 10:18:08;;;;;;;26.70;9.67;;;;;;;-145.18;100.00;46719.00;4931280;29;20278;-71
2022/01/27 10:20:35;;;;;;;29.63;11.97;;;;;;;-145.18;100.00;46719.00;4931362;29;20055;-71
2022/01/27 10:23:10;;;;;;;32.10;12.00;;;;;;;-145.18;100.00;46711.19;4930229;29;20357;-71
2022/01/27 10:25:45;;;;;;;25.90;11.00;;;;;;;-145.18;100.00;46717.03;4913903;29;20688;-71
2022/01/27 10:28:22;;;;;;;29.30;8.43;;;;;;;-145.18;100.00;46713.13;4929587;29;20763;-71
2022/01/27 10:30:58;;;;;;;31.80;12.23;;;;;;;-145.18;100.00;46711.19;4930980;29;20031;-70
2022/01/27 10:33:23;;;;;;;31.65;10.82;;;;;;;-145.18;100.00;46709.22;4930744;29;20270;-70
2022/01/27 10:35:50;;;;;;;29.93;9.60;;;;;;;-145.18;100.00;46713.13;4913809;29;20110;-70
2022/01/27 10:38:16;;;;;;;38.47;11.47;;;;;;;-145.18;100.00;46711.19;4930217;29;20039;-71
2022/01/27 10:40:46;;;;;;;37.43;11.57;;;;;;;-145.18;100.00;46717.03;4913877;29;20274;-71
2022/01/27 10:43:14;;;;;;;31.30;9.90;;;;;;;-145.18;100.00;46709.22;4930183;29;20365;-71
2022/01/27 10:46:13;;;;;;;41.17;12.07;;;;;;;-145.18;100.00;46713.13;4913902;29;20381;-71
2022/01/27 10:49:07;;;;;;;31.97;11.13;;;;;;;-145.18;100.00;46707.28;4930545;29;20277;-70
2022/01/27 10:51:50;;;;;;;20.27;6.63;;;;;;;-145.18;100.00;46711.19;4930502;29;20704;-71
2022/01/27 10:54:32;;;;;;;37.17;10.40;;;;;;;-145.18;100.00;46709.22;4929729;29;20270;-70
2022/01/27 10:57:01;;;;;;;31.77;9.53;;;;;;;-145.18;100.00;46709.22;4914823;29;20289;-71
2022/01/27 10:59:28;;;;;;;33.17;9.40;;;;;;;-145.18;100.00;46711.19;4929998;29;20282;-71
2022/01/27 11:01:55;;;;;;;27.03;11.90;;;;;;;-145.18;100.00;46711.19;4930377;29;20274;-71
2022/01/27 11:04:31;;;;;;;29.43;8.63;;;;;;;-145.18;100.00;46711.19;4929032;29;20289;-70
2022/01/27 11:06:59;;;;;;;32.97;10.43;;;;;;;-145.18;100.00;46711.19;4929885;29;20297;-71
2022/01/27 11:09:27;;;;;;;23.33;9.90;;;;;;;-145.18;100.00;46715.09;4929947;29;20300;-71
2022/01/27 11:11:55;;;;;;;26.93;8.47;;;;;;;-145.18;100.00;46711.19;4913091;29;20300;-71
2022/01/27 11:14:23;;;;;;;35.77;11.90;;;;;;;-145.18;100.00;46711.19;4929246;29;20278;-71
2022/01/27 11:16:51;;;;;;;25.90;9.03;;;;;;;-145.18;100.00;46713.13;4929834;29;20282;-71
2022/01/27 11:27:23;;;;;;;26.52;9.45;;;;;;;-145.18;100.00;46713.13;4930233;29;20627;-71
2022/01/27 11:30:05;;;;;;;30.10;9.77;;;;;;;-145.18;100.00;46719.00;4929410;29;20122;-71
2022/01/27 11:33:06;;;;;;;27.43;10.10;;;;;;;-145.18;100.00;46715.09;4930457;29;20266;-72
2022/01/27 11:35:31;;;;;;;31.47;9.17;;;;;;;-145.18;100.00;46717.03;4898330;29;20361;-72
2022/01/27 11:38:00;;;;;;;29.40;9.47;;;;;;;-145.18;100.00;46717.03;4929782;29;20285;-73
2022/01/27 11:40:43;;;;;;;29.00;7.83;;;;;;;-145.18;100.00;46719.00;4929306;29;20043;-72
2022/01/27 11:43:14;;;;;;;21.30;7.00;;;;;;;-145.18;100.00;46715.09;4935557;28;20289;-72
2022/01/27 11:45:47;;;;;;;21.17;7.00;;;;;;;-145.18;100.00;46719.00;4948765;29;20285;-72
2022/01/27 11:48:17;;;;;;;27.53;9.60;;;;;;;-145.18;100.00;46719.00;4947891;29;20372;-72
2022/01/27 11:50:58;;;;;;;20.27;6.20;;;;;;;-145.18;100.00;46715.09;4948926;29;20270;-72
2022/01/27 11:53:43;;;;;;;24.20;6.97;;;;;;;-145.18;100.00;46717.03;4948642;29;20316;-72
2022/01/27 11:56:16;;;;;;;24.30;8.33;;;;;;;-145.18;100.00;46719.00;4948786;29;20266;-72
2022/01/27 11:58:46;;;;;;;19.20;7.33;;;;;;;-145.18;100.00;46719.00;4948472;29;20284;-72
2022/01/27 12:01:17;;;;;;;35.33;7.70;;;;;;;-145.18;100.00;46715.09;4948203;29;20279;-71
2022/01/27 12:04:05;;;;;;;24.87;6.80;;;;;;;-145.18;100.00;46719.00;4948561;28;20269;-72
2022/01/27 12:06:34;;;;;;;23.07;6.80;;;;;;;-145.18;100.00;46720.94;4952818;29;20654;-72
2022/01/27 12:09:18;;;;;;;24.67;6.13;;;;;;;-145.18;100.00;46719.00;4951965;29;20282;-71
2022/01/27 12:11:47;;;;;;;18.87;7.13;;;;;;;-145.18;100.00;46719.00;4952500;29;20284;-71
2022/01/27 12:14:15;;;;;;;18.50;6.27;;;;;;;-145.18;100.00;46715.09;4951916;29;20261;-72
2022/01/27 12:16:53;;;;;;;23.97;6.97;;;;;;;-145.18;100.00;46717.03;4924953;29;20333;-71
2022/01/27 12:19:19;;;;;;;25.63;7.20;;;;;;;-145.18;100.00;46715.09;4933203;29;20274;-71
2022/01/27 12:21:51;;;;;;;23.60;6.87;;;;;;;-145.18;100.00;46713.13;4933081;29;20308;-71
2022/01/27 12:24:25;;;;;;;22.50;6.20;;;;;;;-145.18;100.00;46711.19;4931259;29;20043;-71
2022/01/27 12:27:04;;;;;;;20.17;5.27;;;;;;;-145.18;100.00;46711.19;4933107;29;20699;-71
2022/01/27 12:29:34;;;;;;;16.47;6.47;;;;;;;-145.18;100.00;46707.28;4915833;29;20862;-71
2022/01/27 12:32:06;;;;;;;18.37;5.97;;;;;;;-145.18;100.00;46707.28;4932923;29;20274;-72
2022/01/27 12:34:33;;;;;;;18.50;5.53;;;;;;;-145.18;100.00;46709.22;4932692;29;20281;-71
2022/01/27 12:37:10;;;;;;;17.30;5.17;;;;;;;-145.18;100.00;46711.19;4932813;29;20270;-72
2022/01/27 12:39:41;;;;;;;14.50;5.17;;;;;;;-145.18;100.00;46709.22;4932702;29;20346;-71
2022/01/27 12:42:13;;;;;;;18.30;6.27;;;;;;;-145.18;100.00;46713.13;4933005;29;20285;-71
2022/01/27 12:44:41;;;;;;;23.83;5.43;;;;;;;-145.18;100.00;46711.19;4932514;29;20787;-72
2022/01/27 12:47:14;;;;;;;15.57;5.30;;;;;;;-145.18;100.00;46711.19;4932529;29;20262;-71
2022/01/27 12:49:50;;;;;;;17.70;6.30;;;;;;;-145.18;100.00;46713.13;4932520;29;20278;-72
2022/01/27 12:52:17;;;;;;;;;;;;;;;-145.18;100.00;46711.19;4932360;29;20767;-71
2022/01/27 12:54:44;;;;;;;23.30;6.67;;;;;;;-145.18;100.00;46713.13;4932292;29;19923;-71
2022/01/27 12:57:10;;;;;;;12.97;5.57;;;;;;;-145.18;100.00;46711.19;4932548;29;20326;-71
2022/01/27 12:59:41;;;;;;;13.57;5.70;;;;;;;-145.18;100.00;46713.13;4932300;29;20266;-72
2022/01/27 13:02:09;;;;;;;18.97;6.27;;;;;;;-145.18;100.00;46711.19;4932319;29;20267;-72
2022/01/27 13:04:36;;;;;;;20.30;5.80;;;;;;;-145.18;100.00;46709.22;4915437;29;20322;-72
2022/01/27 13:07:03;;;;;;;21.90;7.20;;;;;;;-145.18;100.00;46707.28;4932128;29;20278;-72
2022/01/27 13:09:30;;;;;;;19.47;5.07;;;;;;;-145.18;100.00;46699.47;4931906;29;20300;-72
2022/01/27 13:11:57;;;;;;;19.83;5.73;;;;;;;-145.18;100.00;46713.13;4916155;29;20325;-72
2022/01/27 13:14:24;;;;;;;18.13;5.60;;;;;;;-145.18;100.00;46709.22;4931962;29;20270;-72
2022/01/27 13:17:06;;;;;;;23.30;6.47;;;;;;;-145.18;100.00;46709.22;4931886;29;20282;-72
2022/01/27 13:19:43;;;;;;;22.97;6.97;;;;;;;-145.18;100.00;46713.13;4932283;29;20270;-72
2022/01/27 13:22:14;;;;;;;20.40;6.30;;;;;;;-145.18;100.00;46711.19;4916255;29;20369;-72
2022/01/27 13:24:44;;;;;;;15.57;5.20;;;;;;;-145.18;100.00;46707.28;4932167;29;20277;-72
2022/01/27 13:27:11;;;;;;;17.27;5.77;;;;;;;-145.18;100.00;46709.22;4931424;29;20262;-72
2022/01/27 13:29:47;;;;;;;14.50;5.27;;;;;;;-145.18;100.00;46703.38;4931787;29;20362;-72
2022/01/27 13:32:13;;;;;;;17.17;5.05;;;;;;;-145.18;100.00;46707.28;4931668;29;20313;-72
2022/01/27 13:34:49;;;;;;;16.13;6.60;;;;;;;-145.18;100.00;46713.13;4931861;29;20112;-72
2022/01/27 13:37:27;;;;;;;25.75;6.32;;;;;;;-145.18;100.00;46715.09;4914998;29;20270;-71
2022/01/27 13:42:17;;;;;;;10.30;4.53;;;;;;;-145.18;100.00;46717.03;4931686;29;20325;-72
2022/01/27 13:45:02;;;;;;;15.40;5.13;;;;;;;-145.18;100.00;46711.19;4931469;29;20044;-72
2022/01/27 13:47:33;;;;;;;14.60;5.93;;;;;;;-145.18;100.00;46711.19;4932006;29;20043;-72
2022/01/27 13:50:24;;;;;;;10.47;3.97;;;;;;;-145.18;100.00;46691.66;4914257;29;20762;-72
2022/01/27 13:52:51;;;;;;;12.27;4.33;;;;;;;-145.18;100.00;46656.50;4929743;29;20266;-71
2022/01/27 13:55:23;;;;;;;16.73;4.63;;;;;;;-145.18;100.00;46611.56;4931048;29;20353;-72
2022/01/27 13:57:59;;;;;;;13.57;4.07;;;;;;;-145.18;100.00;46593.97;4913709;29;20274;-72
2022/01/27 14:00:41;;;;;;;10.17;3.73;;;;;;;-145.18;100.00;46592.03;4930252;29;20278;-72
2022/01/27 14:03:12;;;;;;;12.27;3.97;;;;;;;-145.18;100.00;46590.06;4931228;29;20286;-72
2022/01/27 14:05:38;;;;;;;15.07;4.80;;;;;;;-145.18;100.00;46586.16;4931163;29;20798;-72
2022/01/27 14:08:03;;;;;;;9.60;3.33;;;;;;;-145.18;100.00;46578.34;4931205;29;20274;-72
2022/01/27 14:10:38;;;;;;;12.23;3.83;;;;;;;-145.18;100.00;46580.31;4930838;29;20040;-72
2022/01/27 14:13:09;;;;;;;10.47;2.90;;;;;;;-145.18;100.00;46586.16;4931184;29;20050;-72
2022/01/27 14:15:45;;;;;;;13.77;3.57;;;;;;;-145.18;100.00;46582.25;4931339;29;20365;-72
2022/01/27 14:18:17;;;;;;;8.27;2.43;;;;;;;-145.18;100.00;46588.13;4929973;29;20277;-72
2022/01/27 14:20:59;;;;;;;15.10;3.70;;;;;;;-145.18;100.00;46631.09;4931070;29;20334;-72
2022/01/27 14:23:47;;;;;;;11.43;2.90;;;;;;;-145.18;100.00;46631.09;4931454;29;20270;-72